sensor_id;sensor_type;location;lat;lon;timestamp;P1;durP1;ratioP1;P2;durP2;ratioP2
7661;SDS011;30314;48.184;11.510;2023-11-22T00:02:16;15.93;;;8.10;;
7661;SDS011;30314;48.184;11.510;2023-11-22T00:04:44;9.77;;;6.63;;
7661;SDS011;30314;48.184;11.510;2023-11-22T00:07:11;11.13;;;7.27;;
7661;SDS011;30314;48.184;11.510;2023-11-22T00:09:38;12.93;;;7.00;;
7661;SDS011;30314;48.184;11.510;2023-11-22T00:12:04;10.70;;;7.80;;
7661;SDS011;30314;48.184;11.510;2023-11-22T00:14:32;17.17;;;8.53;;
7661;SDS011;30314;48.184;11.510;2023-11-22T00:17:01;13.70;;;7.87;;
7661;SDS011;30314;48.184;11.510;2023-11-22T00:19:28;13.17;;;7.83;;
7661;SDS011;30314;48.184;11.510;2023-11-22T00:21:56;19.63;;;8.27;;
7661;SDS011;30314;48.184;11.510;2023-11-22T00:24:23;19.40;;;8.60;;
7661;SDS011;30314;48.184;11.510;2023-11-22T00:26:50;14.10;;;7.50;;
7661;SDS011;30314;48.184;11.510;2023-11-22T00:29:16;11.10;;;7.50;;
7661;SDS011;30314;48.184;11.510;2023-11-22T00:31:43;12.40;;;7.70;;
7661;SDS011;30314;48.184;11.510;2023-11-22T00:34:11;13.60;;;7.60;;
7661;SDS011;30314;48.184;11.510;2023-11-22T00:36:38;10.97;;;6.73;;
7661;SDS011;30314;48.184;11.510;2023-11-22T00:39:04;10.27;;;7.13;;
7661;SDS011;30314;48.184;11.510;2023-11-22T00:41:31;12.07;;;6.80;;
7661;SDS011;30314;48.184;11.510;2023-11-22T00:43:58;15.70;;;7.40;;
7661;SDS011;30314;48.184;11.510;2023-11-22T00:46:25;15.57;;;7.13;;
7661;SDS011;30314;48.184;11.510;2023-11-22T00:48:52;15.63;;;7.60;;
7661;SDS011;30314;48.184;11.510;2023-11-22T00:51:18;17.07;;;7.87;;
7661;SDS011;30314;48.184;11.510;2023-11-22T00:53:46;13.30;;;7.60;;
7661;SDS011;30314;48.184;11.510;2023-11-22T00:56:13;14.53;;;8.33;;
7661;SDS011;30314;48.184;11.510;2023-11-22T00:58:40;14.73;;;7.93;;
7661;SDS011;30314;48.184;11.510;2023-11-22T01:01:06;14.83;;;8.43;;
7661;SDS011;30314;48.184;11.510;2023-11-22T01:03:34;13.67;;;8.10;;
7661;SDS011;30314;48.184;11.510;2023-11-22T01:06:04;15.53;;;7.27;;
7661;SDS011;30314;48.184;11.510;2023-11-22T01:08:32;14.80;;;7.90;;
7661;SDS011;30314;48.184;11.510;2023-11-22T01:10:59;12.77;;;7.43;;
7661;SDS011;30314;48.184;11.510;2023-11-22T01:13:26;16.63;;;9.27;;
7661;SDS011;30314;48.184;11.510;2023-11-22T01:15:52;12.97;;;8.00;;
7661;SDS011;30314;48.184;11.510;2023-11-22T01:18:21;15.40;;;8.30;;
7661;SDS011;30314;48.184;11.510;2023-11-22T01:20:48;17.03;;;8.67;;
7661;SDS011;30314;48.184;11.510;2023-11-22T01:23:15;15.83;;;9.00;;
7661;SDS011;30314;48.184;11.510;2023-11-22T01:25:42;16.20;;;9.53;;
7661;SDS011;30314;48.184;11.510;2023-11-22T01:28:08;15.43;;;9.07;;
7661;SDS011;30314;48.184;11.510;2023-11-22T01:30:37;15.17;;;9.17;;
7661;SDS011;30314;48.184;11.510;2023-11-22T01:33:05;16.93;;;9.27;;
7661;SDS011;30314;48.184;11.510;2023-11-22T01:35:32;14.63;;;8.97;;
7661;SDS011;30314;48.184;11.510;2023-11-22T01:38:00;15.47;;;8.40;;
7661;SDS011;30314;48.184;11.510;2023-11-22T01:40:28;17.40;;;10.10;;
7661;SDS011;30314;48.184;11.510;2023-11-22T01:42:55;18.43;;;10.70;;
7661;SDS011;30314;48.184;11.510;2023-11-22T01:45:21;15.07;;;10.10;;
7661;SDS011;30314;48.184;11.510;2023-11-22T01:47:48;22.80;;;10.00;;
7661;SDS011;30314;48.184;11.510;2023-11-22T01:50:16;15.60;;;9.40;;
7661;SDS011;30314;48.184;11.510;2023-11-22T01:52:42;18.33;;;9.23;;
7661;SDS011;30314;48.184;11.510;2023-11-22T01:55:10;20.13;;;9.70;;
7661;SDS011;30314;48.184;11.510;2023-11-22T01:57:39;12.00;;;7.93;;
7661;SDS011;30314;48.184;11.510;2023-11-22T02:00:06;13.33;;;7.90;;
7661;SDS011;30314;48.184;11.510;2023-11-22T02:02:40;12.10;;;6.90;;
7661;SDS011;30314;48.184;11.510;2023-11-22T02:05:09;6.20;;;4.83;;
7661;SDS011;30314;48.184;11.510;2023-11-22T02:07:36;8.30;;;4.53;;
7661;SDS011;30314;48.184;11.510;2023-11-22T02:10:03;6.07;;;3.77;;
7661;SDS011;30314;48.184;11.510;2023-11-22T02:12:33;11.33;;;4.33;;
7661;SDS011;30314;48.184;11.510;2023-11-22T02:15:00;4.93;;;3.60;;
7661;SDS011;30314;48.184;11.510;2023-11-22T02:17:27;4.20;;;3.20;;
7661;SDS011;30314;48.184;11.510;2023-11-22T02:19:55;5.43;;;3.37;;
7661;SDS011;30314;48.184;11.510;2023-11-22T02:22:21;4.97;;;2.83;;
7661;SDS011;30314;48.184;11.510;2023-11-22T02:24:48;3.30;;;2.73;;
7661;SDS011;30314;48.184;11.510;2023-11-22T02:27:15;5.77;;;2.50;;
7661;SDS011;30314;48.184;11.510;2023-11-22T02:29:42;3.10;;;2.40;;
7661;SDS011;30314;48.184;11.510;2023-11-22T02:32:09;2.50;;;1.90;;
7661;SDS011;30314;48.184;11.510;2023-11-22T02:34:36;4.87;;;4.37;;
7661;SDS011;30314;48.184;11.510;2023-11-22T02:37:04;3.47;;;2.20;;
7661;SDS011;30314;48.184;11.510;2023-11-22T02:39:42;2.63;;;1.90;;
7661;SDS011;30314;48.184;11.510;2023-11-22T02:42:19;3.70;;;1.77;;
7661;SDS011;30314;48.184;11.510;2023-11-22T02:44:45;3.70;;;1.77;;
7661;SDS011;30314;48.184;11.510;2023-11-22T02:47:12;3.07;;;1.63;;
7661;SDS011;30314;48.184;11.510;2023-11-22T02:49:39;2.00;;;1.60;;
7661;SDS011;30314;48.184;11.510;2023-11-22T02:52:05;3.10;;;2.20;;
7661;SDS011;30314;48.184;11.510;2023-11-22T02:54:32;2.03;;;1.37;;
7661;SDS011;30314;48.184;11.510;2023-11-22T02:56:58;3.03;;;1.80;;
7661;SDS011;30314;48.184;11.510;2023-11-22T02:59:26;3.23;;;1.97;;
7661;SDS011;30314;48.184;11.510;2023-11-22T03:01:53;2.83;;;2.00;;
7661;SDS011;30314;48.184;11.510;2023-11-22T03:04:20;2.70;;;2.07;;
7661;SDS011;30314;48.184;11.510;2023-11-22T03:06:46;3.13;;;1.93;;
7661;SDS011;30314;48.184;11.510;2023-11-22T03:09:14;2.23;;;1.53;;
7661;SDS011;30314;48.184;11.510;2023-11-22T03:11:41;3.37;;;1.90;;
7661;SDS011;30314;48.184;11.510;2023-11-22T03:14:07;2.10;;;1.80;;
7661;SDS011;30314;48.184;11.510;2023-11-22T03:16:38;4.53;;;2.10;;
7661;SDS011;30314;48.184;11.510;2023-11-22T03:19:05;2.73;;;1.60;;
7661;SDS011;30314;48.184;11.510;2023-11-22T03:21:33;2.77;;;1.60;;
7661;SDS011;30314;48.184;11.510;2023-11-22T03:24:02;3.60;;;1.73;;
7661;SDS011;30314;48.184;11.510;2023-11-22T03:26:30;2.80;;;1.67;;
7661;SDS011;30314;48.184;11.510;2023-11-22T03:28:56;2.20;;;1.33;;
7661;SDS011;30314;48.184;11.510;2023-11-22T03:31:23;2.97;;;2.13;;
7661;SDS011;30314;48.184;11.510;2023-11-22T03:33:50;3.63;;;2.27;;
7661;SDS011;30314;48.184;11.510;2023-11-22T03:36:17;4.20;;;2.17;;
7661;SDS011;30314;48.184;11.510;2023-11-22T03:38:43;3.00;;;1.67;;
7661;SDS011;30314;48.184;11.510;2023-11-22T03:41:12;4.17;;;2.00;;
7661;SDS011;30314;48.184;11.510;2023-11-22T03:43:38;2.60;;;1.87;;
7661;SDS011;30314;48.184;11.510;2023-11-22T03:46:05;2.63;;;1.97;;
7661;SDS011;30314;48.184;11.510;2023-11-22T03:48:31;3.40;;;1.90;;
7661;SDS011;30314;48.184;11.510;2023-11-22T03:50:59;3.60;;;2.00;;
7661;SDS011;30314;48.184;11.510;2023-11-22T03:53:26;4.83;;;2.10;;
7661;SDS011;30314;48.184;11.510;2023-11-22T03:55:54;4.37;;;2.20;;
7661;SDS011;30314;48.184;11.510;2023-11-22T03:58:21;6.03;;;2.50;;
7661;SDS011;30314;48.184;11.510;2023-11-22T04:00:47;3.53;;;2.47;;
7661;SDS011;30314;48.184;11.510;2023-11-22T04:03:14;2.77;;;2.03;;
7661;SDS011;30314;48.184;11.510;2023-11-22T04:05:41;4.40;;;2.80;;
7661;SDS011;30314;48.184;11.510;2023-11-22T04:08:08;3.87;;;2.50;;
7661;SDS011;30314;48.184;11.510;2023-11-22T04:10:36;5.20;;;3.03;;
7661;SDS011;30314;48.184;11.510;2023-11-22T04:13:02;4.53;;;2.73;;
7661;SDS011;30314;48.184;11.510;2023-11-22T04:15:29;5.00;;;3.17;;
7661;SDS011;30314;48.184;11.510;2023-11-22T04:17:56;3.30;;;2.13;;
7661;SDS011;30314;48.184;11.510;2023-11-22T04:20:23;8.30;;;3.60;;
7661;SDS011;30314;48.184;11.510;2023-11-22T04:22:50;5.73;;;3.70;;
7661;SDS011;30314;48.184;11.510;2023-11-22T04:25:17;4.90;;;3.20;;
7661;SDS011;30314;48.184;11.510;2023-11-22T04:27:44;10.90;;;4.00;;
7661;SDS011;30314;48.184;11.510;2023-11-22T04:30:11;6.73;;;3.27;;
7661;SDS011;30314;48.184;11.510;2023-11-22T04:32:41;4.57;;;2.40;;
7661;SDS011;30314;48.184;11.510;2023-11-22T04:35:08;4.00;;;2.37;;
7661;SDS011;30314;48.184;11.510;2023-11-22T04:37:36;5.10;;;2.83;;
7661;SDS011;30314;48.184;11.510;2023-11-22T04:40:03;3.47;;;2.10;;
7661;SDS011;30314;48.184;11.510;2023-11-22T04:42:37;3.47;;;2.20;;
7661;SDS011;30314;48.184;11.510;2023-11-22T04:45:04;4.40;;;2.40;;
7661;SDS011;30314;48.184;11.510;2023-11-22T04:47:32;3.87;;;2.20;;
7661;SDS011;30314;48.184;11.510;2023-11-22T04:49:59;4.00;;;2.43;;
7661;SDS011;30314;48.184;11.510;2023-11-22T04:52:26;3.23;;;2.30;;
7661;SDS011;30314;48.184;11.510;2023-11-22T04:54:55;4.40;;;2.33;;
7661;SDS011;30314;48.184;11.510;2023-11-22T04:57:22;3.20;;;2.30;;
7661;SDS011;30314;48.184;11.510;2023-11-22T04:59:48;3.37;;;1.70;;
7661;SDS011;30314;48.184;11.510;2023-11-22T05:02:15;3.07;;;2.00;;
7661;SDS011;30314;48.184;11.510;2023-11-22T05:04:42;5.13;;;2.07;;
7661;SDS011;30314;48.184;11.510;2023-11-22T05:07:09;3.00;;;1.90;;
7661;SDS011;30314;48.184;11.510;2023-11-22T05:09:35;4.50;;;2.17;;
7661;SDS011;30314;48.184;11.510;2023-11-22T05:12:02;4.37;;;1.73;;
7661;SDS011;30314;48.184;11.510;2023-11-22T05:14:30;2.93;;;2.13;;
7661;SDS011;30314;48.184;11.510;2023-11-22T05:16:56;3.20;;;1.63;;
7661;SDS011;30314;48.184;11.510;2023-11-22T05:19:23;3.40;;;1.90;;
7661;SDS011;30314;48.184;11.510;2023-11-22T05:21:49;2.37;;;1.63;;
7661;SDS011;30314;48.184;11.510;2023-11-22T05:24:16;2.63;;;1.80;;
7661;SDS011;30314;48.184;11.510;2023-11-22T05:26:43;3.13;;;2.13;;
7661;SDS011;30314;48.184;11.510;2023-11-22T05:29:09;4.30;;;2.57;;
7661;SDS011;30314;48.184;11.510;2023-11-22T05:31:36;3.43;;;1.70;;
7661;SDS011;30314;48.184;11.510;2023-11-22T05:34:03;2.30;;;1.53;;
7661;SDS011;30314;48.184;11.510;2023-11-22T05:36:30;4.13;;;2.20;;
7661;SDS011;30314;48.184;11.510;2023-11-22T05:38:57;3.70;;;1.77;;
7661;SDS011;30314;48.184;11.510;2023-11-22T05:41:26;2.90;;;1.53;;
7661;SDS011;30314;48.184;11.510;2023-11-22T05:43:53;2.50;;;1.40;;
7661;SDS011;30314;48.184;11.510;2023-11-22T05:46:20;3.53;;;2.27;;
7661;SDS011;30314;48.184;11.510;2023-11-22T05:48:51;2.20;;;1.87;;
7661;SDS011;30314;48.184;11.510;2023-11-22T05:51:18;3.77;;;2.13;;
7661;SDS011;30314;48.184;11.510;2023-11-22T05:53:45;3.47;;;2.07;;
7661;SDS011;30314;48.184;11.510;2023-11-22T05:56:12;4.33;;;1.50;;
7661;SDS011;30314;48.184;11.510;2023-11-22T05:58:39;3.53;;;1.97;;
7661;SDS011;30314;48.184;11.510;2023-11-22T06:01:05;3.60;;;2.10;;
7661;SDS011;30314;48.184;11.510;2023-11-22T06:03:32;4.17;;;2.13;;
7661;SDS011;30314;48.184;11.510;2023-11-22T06:06:00;4.53;;;2.03;;
7661;SDS011;30314;48.184;11.510;2023-11-22T06:08:27;4.17;;;1.93;;
7661;SDS011;30314;48.184;11.510;2023-11-22T06:10:53;2.40;;;2.20;;
7661;SDS011;30314;48.184;11.510;2023-11-22T06:13:23;3.47;;;2.30;;
7661;SDS011;30314;48.184;11.510;2023-11-22T06:15:50;3.87;;;2.10;;
7661;SDS011;30314;48.184;11.510;2023-11-22T06:18:16;2.47;;;1.97;;
7661;SDS011;30314;48.184;11.510;2023-11-22T06:20:43;3.00;;;2.00;;
7661;SDS011;30314;48.184;11.510;2023-11-22T06:23:10;3.70;;;2.07;;
7661;SDS011;30314;48.184;11.510;2023-11-22T06:25:37;4.07;;;2.27;;
7661;SDS011;30314;48.184;11.510;2023-11-22T06:28:03;3.87;;;2.37;;
7661;SDS011;30314;48.184;11.510;2023-11-22T06:30:30;5.00;;;2.53;;
7661;SDS011;30314;48.184;11.510;2023-11-22T06:32:57;4.57;;;2.90;;
7661;SDS011;30314;48.184;11.510;2023-11-22T06:35:23;4.50;;;2.87;;
7661;SDS011;30314;48.184;11.510;2023-11-22T06:37:50;4.40;;;2.70;;
7661;SDS011;30314;48.184;11.510;2023-11-22T06:40:16;3.00;;;2.30;;
7661;SDS011;30314;48.184;11.510;2023-11-22T06:42:43;4.37;;;2.40;;
7661;SDS011;30314;48.184;11.510;2023-11-22T06:45:10;4.73;;;2.67;;
7661;SDS011;30314;48.184;11.510;2023-11-22T06:47:37;3.93;;;2.23;;
7661;SDS011;30314;48.184;11.510;2023-11-22T06:50:04;4.17;;;2.80;;
7661;SDS011;30314;48.184;11.510;2023-11-22T06:52:36;3.70;;;2.57;;
7661;SDS011;30314;48.184;11.510;2023-11-22T06:55:04;4.97;;;3.30;;
7661;SDS011;30314;48.184;11.510;2023-11-22T06:57:37;5.43;;;3.13;;
7661;SDS011;30314;48.184;11.510;2023-11-22T07:00:04;3.40;;;2.43;;
7661;SDS011;30314;48.184;11.510;2023-11-22T07:02:32;3.33;;;2.60;;
7661;SDS011;30314;48.184;11.510;2023-11-22T07:04:59;7.60;;;2.40;;
7661;SDS011;30314;48.184;11.510;2023-11-22T07:07:25;3.80;;;2.50;;
7661;SDS011;30314;48.184;11.510;2023-11-22T07:09:52;4.07;;;2.83;;
7661;SDS011;30314;48.184;11.510;2023-11-22T07:12:21;4.63;;;3.03;;
7661;SDS011;30314;48.184;11.510;2023-11-22T07:14:48;4.57;;;2.93;;
7661;SDS011;30314;48.184;11.510;2023-11-22T07:17:16;8.50;;;3.60;;
7661;SDS011;30314;48.184;11.510;2023-11-22T07:19:44;6.13;;;3.70;;
7661;SDS011;30314;48.184;11.510;2023-11-22T07:22:17;4.97;;;3.47;;
7661;SDS011;30314;48.184;11.510;2023-11-22T07:24:45;6.30;;;3.40;;
7661;SDS011;30314;48.184;11.510;2023-11-22T07:27:14;5.60;;;2.73;;
7661;SDS011;30314;48.184;11.510;2023-11-22T07:29:41;4.53;;;3.03;;
7661;SDS011;30314;48.184;11.510;2023-11-22T07:32:08;6.90;;;3.60;;
7661;SDS011;30314;48.184;11.510;2023-11-22T07:34:36;5.93;;;3.63;;
7661;SDS011;30314;48.184;11.510;2023-11-22T07:37:05;6.03;;;3.63;;
7661;SDS011;30314;48.184;11.510;2023-11-22T07:39:35;6.77;;;4.00;;
7661;SDS011;30314;48.184;11.510;2023-11-22T07:42:02;6.53;;;3.10;;
7661;SDS011;30314;48.184;11.510;2023-11-22T07:44:29;6.90;;;3.90;;
7661;SDS011;30314;48.184;11.510;2023-11-22T07:46:59;6.73;;;4.10;;
7661;SDS011;30314;48.184;11.510;2023-11-22T07:49:26;6.20;;;4.00;;
7661;SDS011;30314;48.184;11.510;2023-11-22T07:51:53;8.03;;;3.50;;
7661;SDS011;30314;48.184;11.510;2023-11-22T07:54:20;6.73;;;4.17;;
7661;SDS011;30314;48.184;11.510;2023-11-22T07:56:49;6.10;;;3.80;;
7661;SDS011;30314;48.184;11.510;2023-11-22T07:59:16;9.53;;;5.00;;
7661;SDS011;30314;48.184;11.510;2023-11-22T08:01:43;7.60;;;4.47;;
7661;SDS011;30314;48.184;11.510;2023-11-22T08:04:10;4.70;;;3.83;;
7661;SDS011;30314;48.184;11.510;2023-11-22T08:06:36;11.87;;;5.23;;
7661;SDS011;30314;48.184;11.510;2023-11-22T08:09:04;8.03;;;4.10;;
7661;SDS011;30314;48.184;11.510;2023-11-22T08:11:31;8.63;;;4.57;;
7661;SDS011;30314;48.184;11.510;2023-11-22T08:13:57;18.40;;;4.73;;
7661;SDS011;30314;48.184;11.510;2023-11-22T08:16:25;12.90;;;5.33;;
7661;SDS011;30314;48.184;11.510;2023-11-22T08:18:53;9.20;;;4.70;;
7661;SDS011;30314;48.184;11.510;2023-11-22T08:21:20;7.00;;;4.30;;
7661;SDS011;30314;48.184;11.510;2023-11-22T08:23:46;6.83;;;4.20;;
7661;SDS011;30314;48.184;11.510;2023-11-22T08:26:13;8.00;;;4.20;;
7661;SDS011;30314;48.184;11.510;2023-11-22T08:28:40;6.60;;;3.83;;
7661;SDS011;30314;48.184;11.510;2023-11-22T08:31:07;6.50;;;3.90;;
7661;SDS011;30314;48.184;11.510;2023-11-22T08:33:37;6.20;;;3.90;;
7661;SDS011;30314;48.184;11.510;2023-11-22T08:36:05;6.20;;;4.00;;
7661;SDS011;30314;48.184;11.510;2023-11-22T08:38:32;10.10;;;3.97;;
7661;SDS011;30314;48.184;11.510;2023-11-22T08:41:05;5.40;;;3.37;;
7661;SDS011;30314;48.184;11.510;2023-11-22T08:43:33;6.17;;;3.90;;
7661;SDS011;30314;48.184;11.510;2023-11-22T08:46:00;6.73;;;4.23;;
7661;SDS011;30314;48.184;11.510;2023-11-22T08:48:40;7.83;;;4.17;;
7661;SDS011;30314;48.184;11.510;2023-11-22T08:51:08;7.93;;;3.90;;
7661;SDS011;30314;48.184;11.510;2023-11-22T08:53:37;8.90;;;4.30;;
7661;SDS011;30314;48.184;11.510;2023-11-22T08:56:04;8.33;;;4.13;;
7661;SDS011;30314;48.184;11.510;2023-11-22T08:58:32;19.57;;;4.40;;
7661;SDS011;30314;48.184;11.510;2023-11-22T09:01:00;6.37;;;3.60;;
7661;SDS011;30314;48.184;11.510;2023-11-22T09:03:27;4.53;;;3.23;;
7661;SDS011;30314;48.184;11.510;2023-11-22T09:05:55;5.70;;;3.80;;
7661;SDS011;30314;48.184;11.510;2023-11-22T09:08:22;7.80;;;4.03;;
7661;SDS011;30314;48.184;11.510;2023-11-22T09:10:53;5.33;;;3.30;;
7661;SDS011;30314;48.184;11.510;2023-11-22T09:13:21;4.93;;;3.20;;
7661;SDS011;30314;48.184;11.510;2023-11-22T09:15:49;5.60;;;3.60;;
7661;SDS011;30314;48.184;11.510;2023-11-22T09:18:16;4.33;;;3.20;;
7661;SDS011;30314;48.184;11.510;2023-11-22T09:20:43;4.03;;;3.10;;
7661;SDS011;30314;48.184;11.510;2023-11-22T09:23:11;4.70;;;3.10;;
7661;SDS011;30314;48.184;11.510;2023-11-22T09:25:38;10.60;;;3.80;;
7661;SDS011;30314;48.184;11.510;2023-11-22T09:28:05;6.07;;;3.50;;
7661;SDS011;30314;48.184;11.510;2023-11-22T09:30:34;7.63;;;3.10;;
7661;SDS011;30314;48.184;11.510;2023-11-22T09:33:02;7.50;;;4.10;;
7661;SDS011;30314;48.184;11.510;2023-11-22T09:35:36;6.63;;;3.70;;
7661;SDS011;30314;48.184;11.510;2023-11-22T09:38:07;5.80;;;3.50;;
7661;SDS011;30314;48.184;11.510;2023-11-22T09:40:42;4.90;;;2.73;;
7661;SDS011;30314;48.184;11.510;2023-11-22T09:43:10;3.93;;;2.63;;
7661;SDS011;30314;48.184;11.510;2023-11-22T09:45:38;4.67;;;2.67;;
7661;SDS011;30314;48.184;11.510;2023-11-22T09:48:07;7.37;;;3.10;;
7661;SDS011;30314;48.184;11.510;2023-11-22T09:50:49;4.33;;;2.63;;
7661;SDS011;30314;48.184;11.510;2023-11-22T09:53:42;5.93;;;3.10;;
7661;SDS011;30314;48.184;11.510;2023-11-22T09:56:20;3.93;;;2.73;;
7661;SDS011;30314;48.184;11.510;2023-11-22T09:58:47;4.40;;;2.63;;
7661;SDS011;30314;48.184;11.510;2023-11-22T10:01:22;6.30;;;3.70;;
7661;SDS011;30314;48.184;11.510;2023-11-22T10:03:49;7.20;;;3.03;;
7661;SDS011;30314;48.184;11.510;2023-11-22T10:06:17;6.50;;;3.07;;
7661;SDS011;30314;48.184;11.510;2023-11-22T10:08:44;3.80;;;2.60;;
7661;SDS011;30314;48.184;11.510;2023-11-22T10:11:17;5.40;;;3.30;;
7661;SDS011;30314;48.184;11.510;2023-11-22T10:13:47;5.27;;;3.47;;
7661;SDS011;30314;48.184;11.510;2023-11-22T10:16:16;5.07;;;3.30;;
7661;SDS011;30314;48.184;11.510;2023-11-22T10:18:43;6.40;;;4.40;;
7661;SDS011;30314;48.184;11.510;2023-11-22T10:23:50;3.80;;;3.40;;
7661;SDS011;30314;48.184;11.510;2023-11-22T10:26:19;4.23;;;3.17;;
7661;SDS011;30314;48.184;11.510;2023-11-22T10:28:46;4.63;;;3.10;;
7661;SDS011;30314;48.184;11.510;2023-11-22T10:31:13;4.40;;;3.00;;
7661;SDS011;30314;48.184;11.510;2023-11-22T10:33:40;4.70;;;3.10;;
7661;SDS011;30314;48.184;11.510;2023-11-22T10:36:08;5.40;;;3.30;;
7661;SDS011;30314;48.184;11.510;2023-11-22T10:38:36;5.33;;;3.23;;
7661;SDS011;30314;48.184;11.510;2023-11-22T10:41:03;4.50;;;2.87;;
7661;SDS011;30314;48.184;11.510;2023-11-22T10:43:31;4.47;;;2.90;;
7661;SDS011;30314;48.184;11.510;2023-11-22T10:46:02;2.67;;;2.40;;
7661;SDS011;30314;48.184;11.510;2023-11-22T10:48:29;4.80;;;2.70;;
7661;SDS011;30314;48.184;11.510;2023-11-22T10:50:57;6.43;;;2.90;;
7661;SDS011;30314;48.184;11.510;2023-11-22T10:53:27;4.17;;;2.80;;
7661;SDS011;30314;48.184;11.510;2023-11-22T10:56:12;4.30;;;2.97;;
7661;SDS011;30314;48.184;11.510;2023-11-22T10:58:49;4.63;;;3.00;;
7661;SDS011;30314;48.184;11.510;2023-11-22T11:01:17;4.00;;;2.93;;
7661;SDS011;30314;48.184;11.510;2023-11-22T11:03:46;15.23;;;3.33;;
7661;SDS011;30314;48.184;11.510;2023-11-22T11:06:23;4.37;;;3.00;;
7661;SDS011;30314;48.184;11.510;2023-11-22T11:08:57;5.50;;;3.03;;
7661;SDS011;30314;48.184;11.510;2023-11-22T11:11:27;5.10;;;3.53;;
7661;SDS011;30314;48.184;11.510;2023-11-22T11:13:55;4.63;;;2.90;;
7661;SDS011;30314;48.184;11.510;2023-11-22T11:16:23;5.87;;;3.30;;
7661;SDS011;30314;48.184;11.510;2023-11-22T11:18:50;6.37;;;3.33;;
7661;SDS011;30314;48.184;11.510;2023-11-22T11:21:17;4.77;;;3.10;;
7661;SDS011;30314;48.184;11.510;2023-11-22T11:23:45;7.30;;;3.00;;
7661;SDS011;30314;48.184;11.510;2023-11-22T11:26:16;4.60;;;2.60;;
7661;SDS011;30314;48.184;11.510;2023-11-22T11:28:46;4.97;;;3.50;;
7661;SDS011;30314;48.184;11.510;2023-11-22T11:31:14;4.60;;;2.90;;
7661;SDS011;30314;48.184;11.510;2023-11-22T11:34:00;3.50;;;2.77;;
7661;SDS011;30314;48.184;11.510;2023-11-22T11:36:28;5.20;;;3.27;;
7661;SDS011;30314;48.184;11.510;2023-11-22T11:39:01;4.30;;;2.90;;
7661;SDS011;30314;48.184;11.510;2023-11-22T11:41:32;4.00;;;3.07;;
7661;SDS011;30314;48.184;11.510;2023-11-22T11:44:01;5.37;;;3.33;;
7661;SDS011;30314;48.184;11.510;2023-11-22T11:46:29;5.43;;;3.53;;
7661;SDS011;30314;48.184;11.510;2023-11-22T11:48:57;6.17;;;3.63;;
7661;SDS011;30314;48.184;11.510;2023-11-22T11:51:24;4.77;;;3.37;;
7661;SDS011;30314;48.184;11.510;2023-11-22T11:53:53;3.73;;;2.70;;
7661;SDS011;30314;48.184;11.510;2023-11-22T11:56:23;4.10;;;3.23;;
7661;SDS011;30314;48.184;11.510;2023-11-22T11:58:55;4.87;;;2.97;;
7661;SDS011;30314;48.184;11.510;2023-11-22T12:01:27;4.33;;;3.00;;
7661;SDS011;30314;48.184;11.510;2023-11-22T12:03:56;6.30;;;3.50;;
7661;SDS011;30314;48.184;11.510;2023-11-22T12:06:23;4.50;;;3.27;;
7661;SDS011;30314;48.184;11.510;2023-11-22T12:08:50;6.87;;;4.10;;
7661;SDS011;30314;48.184;11.510;2023-11-22T12:11:16;4.77;;;3.60;;
7661;SDS011;30314;48.184;11.510;2023-11-22T12:13:44;6.57;;;4.50;;
7661;SDS011;30314;48.184;11.510;2023-11-22T12:16:16;4.67;;;3.07;;
7661;SDS011;30314;48.184;11.510;2023-11-22T12:18:45;5.10;;;3.27;;
7661;SDS011;30314;48.184;11.510;2023-11-22T12:21:17;5.43;;;3.67;;
7661;SDS011;30314;48.184;11.510;2023-11-22T12:23:45;4.63;;;3.13;;
7661;SDS011;30314;48.184;11.510;2023-11-22T12:26:16;9.90;;;3.63;;
7661;SDS011;30314;48.184;11.510;2023-11-22T12:28:48;5.63;;;3.87;;
7661;SDS011;30314;48.184;11.510;2023-11-22T12:31:29;5.10;;;3.90;;
7661;SDS011;30314;48.184;11.510;2023-11-22T12:34:02;5.57;;;3.87;;
7661;SDS011;30314;48.184;11.510;2023-11-22T12:36:29;6.20;;;4.03;;
7661;SDS011;30314;48.184;11.510;2023-11-22T12:38:55;4.10;;;3.03;;
7661;SDS011;30314;48.184;11.510;2023-11-22T12:41:26;5.00;;;3.43;;
7661;SDS011;30314;48.184;11.510;2023-11-22T12:44:06;4.47;;;3.10;;
7661;SDS011;30314;48.184;11.510;2023-11-22T12:49:16;5.47;;;4.07;;
7661;SDS011;30314;48.184;11.510;2023-11-22T12:51:46;5.90;;;3.87;;
7661;SDS011;30314;48.184;11.510;2023-11-22T12:54:14;5.80;;;3.73;;
7661;SDS011;30314;48.184;11.510;2023-11-22T12:56:41;5.53;;;3.97;;
7661;SDS011;30314;48.184;11.510;2023-11-22T12:59:08;4.13;;;2.57;;
7661;SDS011;30314;48.184;11.510;2023-11-22T13:01:35;7.63;;;3.20;;
7661;SDS011;30314;48.184;11.510;2023-11-22T13:04:02;4.30;;;3.53;;
7661;SDS011;30314;48.184;11.510;2023-11-22T13:06:30;5.73;;;3.50;;
7661;SDS011;30314;48.184;11.510;2023-11-22T13:08:57;4.33;;;3.53;;
7661;SDS011;30314;48.184;11.510;2023-11-22T13:11:23;4.93;;;2.90;;
7661;SDS011;30314;48.184;11.510;2023-11-22T13:13:51;5.20;;;3.63;;
7661;SDS011;30314;48.184;11.510;2023-11-22T13:16:17;5.20;;;3.87;;
7661;SDS011;30314;48.184;11.510;2023-11-22T13:18:45;5.43;;;3.30;;
7661;SDS011;30314;48.184;11.510;2023-11-22T13:21:11;4.70;;;3.80;;
7661;SDS011;30314;48.184;11.510;2023-11-22T13:23:38;4.97;;;3.63;;
7661;SDS011;30314;48.184;11.510;2023-11-22T13:26:05;4.63;;;3.30;;
7661;SDS011;30314;48.184;11.510;2023-11-22T13:28:32;5.73;;;3.60;;
7661;SDS011;30314;48.184;11.510;2023-11-22T13:30:58;5.13;;;3.30;;
7661;SDS011;30314;48.184;11.510;2023-11-22T13:33:25;4.00;;;2.97;;
7661;SDS011;30314;48.184;11.510;2023-11-22T13:35:54;5.47;;;3.20;;
7661;SDS011;30314;48.184;11.510;2023-11-22T13:38:21;3.27;;;2.60;;
7661;SDS011;30314;48.184;11.510;2023-11-22T13:40:48;4.40;;;3.17;;
7661;SDS011;30314;48.184;11.510;2023-11-22T13:43:14;6.00;;;4.00;;
7661;SDS011;30314;48.184;11.510;2023-11-22T13:45:41;4.00;;;2.93;;
7661;SDS011;30314;48.184;11.510;2023-11-22T13:48:08;5.60;;;3.17;;
7661;SDS011;30314;48.184;11.510;2023-11-22T13:50:38;3.47;;;3.17;;
7661;SDS011;30314;48.184;11.510;2023-11-22T13:53:05;6.57;;;3.50;;
7661;SDS011;30314;48.184;11.510;2023-11-22T13:55:31;6.80;;;3.97;;
7661;SDS011;30314;48.184;11.510;2023-11-22T13:57:59;4.43;;;2.90;;
7661;SDS011;30314;48.184;11.510;2023-11-22T14:00:28;5.90;;;3.23;;
7661;SDS011;30314;48.184;11.510;2023-11-22T14:03:00;3.33;;;2.93;;
7661;SDS011;30314;48.184;11.510;2023-11-22T14:05:34;4.73;;;2.80;;
7661;SDS011;30314;48.184;11.510;2023-11-22T14:08:04;5.57;;;3.93;;
7661;SDS011;30314;48.184;11.510;2023-11-22T14:10:32;4.43;;;3.77;;
7661;SDS011;30314;48.184;11.510;2023-11-22T14:12:59;5.10;;;3.60;;
7661;SDS011;30314;48.184;11.510;2023-11-22T14:15:27;4.70;;;3.10;;
7661;SDS011;30314;48.184;11.510;2023-11-22T14:17:57;5.53;;;3.50;;
7661;SDS011;30314;48.184;11.510;2023-11-22T14:20:24;6.83;;;3.90;;
7661;SDS011;30314;48.184;11.510;2023-11-22T14:22:51;5.57;;;4.10;;
7661;SDS011;30314;48.184;11.510;2023-11-22T14:25:19;5.87;;;3.90;;
7661;SDS011;30314;48.184;11.510;2023-11-22T14:27:47;5.20;;;3.10;;
7661;SDS011;30314;48.184;11.510;2023-11-22T14:30:19;5.53;;;3.90;;
7661;SDS011;30314;48.184;11.510;2023-11-22T14:32:47;6.20;;;3.77;;
7661;SDS011;30314;48.184;11.510;2023-11-22T14:35:14;6.17;;;3.10;;
7661;SDS011;30314;48.184;11.510;2023-11-22T14:37:41;4.80;;;3.17;;
7661;SDS011;30314;48.184;11.510;2023-11-22T14:40:08;4.37;;;3.27;;
7661;SDS011;30314;48.184;11.510;2023-11-22T14:42:40;6.03;;;3.63;;
7661;SDS011;30314;48.184;11.510;2023-11-22T14:45:08;5.73;;;3.77;;
7661;SDS011;30314;48.184;11.510;2023-11-22T14:47:35;5.40;;;3.73;;
7661;SDS011;30314;48.184;11.510;2023-11-22T14:50:03;6.00;;;3.60;;
7661;SDS011;30314;48.184;11.510;2023-11-22T14:52:31;6.23;;;3.17;;
7661;SDS011;30314;48.184;11.510;2023-11-22T14:54:58;4.83;;;3.67;;
7661;SDS011;30314;48.184;11.510;2023-11-22T14:57:26;5.17;;;3.40;;